createdAt,value
2018-11-06T00:01:55.157Z,7.37
2018-11-06T00:04:29.097Z,7.60
2018-11-06T00:06:58.017Z,7.52
2018-11-06T00:09:26.714Z,7.53
2018-11-06T00:11:55.334Z,7.83
2018-11-06T00:14:23.981Z,8.21
2018-11-06T00:16:52.558Z,8.42
2018-11-06T00:19:21.570Z,8.63
2018-11-06T00:21:50.185Z,8.71
2018-11-06T00:24:18.861Z,8.72
2018-11-06T00:26:47.505Z,8.76
2018-11-06T00:29:16.124Z,8.54
2018-11-06T00:31:44.833Z,8.15
2018-11-06T00:34:13.534Z,7.93
2018-11-06T00:36:42.107Z,7.89
2018-11-06T00:39:11.051Z,8.10
2018-11-06T00:41:39.850Z,8.49
2018-11-06T00:44:08.692Z,7.10
2018-11-06T00:46:37.712Z,8.17
2018-11-06T00:49:06.516Z,8.29
2018-11-06T00:51:35.181Z,8.41
2018-11-06T00:54:03.837Z,8.28
2018-11-06T00:56:32.514Z,8.44
2018-11-06T00:59:01.181Z,8.44
2018-11-06T01:01:29.827Z,8.58
2018-11-06T01:04:03.773Z,8.78
2018-11-06T01:06:32.433Z,8.96
2018-11-06T01:09:01.073Z,8.77
2018-11-06T01:11:29.666Z,8.41
2018-11-06T01:13:58.306Z,7.82
2018-11-06T01:16:26.924Z,7.82
2018-11-06T01:18:55.591Z,8.13
2018-11-06T01:21:24.264Z,7.96
2018-11-06T01:23:52.863Z,7.69
2018-11-06T01:26:21.599Z,7.80
2018-11-06T01:28:50.250Z,7.97
2018-11-06T01:31:18.922Z,8.16
2018-11-06T01:33:47.562Z,8.42
2018-11-06T01:36:16.142Z,8.13
2018-11-06T01:38:44.773Z,7.99
2018-11-06T01:41:13.392Z,7.80
2018-11-06T01:43:42.058Z,7.88
2018-11-06T01:46:10.668Z,8.13
2018-11-06T01:48:39.317Z,8.16
2018-11-06T01:51:07.929Z,7.98
2018-11-06T01:53:36.532Z,7.93
2018-11-06T01:56:05.173Z,8.06
2018-11-06T01:58:33.796Z,8.24
2018-11-06T02:01:02.459Z,8.34
2018-11-06T02:03:31.057Z,8.49
2018-11-06T02:05:59.734Z,8.47
2018-11-06T02:08:28.368Z,8.61
2018-11-06T02:10:57.046Z,8.52
2018-11-06T02:13:25.697Z,8.53
2018-11-06T02:15:54.342Z,8.50
2018-11-06T02:18:22.973Z,8.26
2018-11-06T02:20:51.598Z,8.29
2018-11-06T02:23:20.240Z,8.45
2018-11-06T02:25:48.871Z,8.45
2018-11-06T02:28:17.485Z,8.47
2018-11-06T02:30:46.094Z,8.48
2018-11-06T02:33:14.753Z,8.36
2018-11-06T02:35:43.423Z,8.41
2018-11-06T02:38:12.141Z,8.24
2018-11-06T02:40:40.765Z,8.33
2018-11-06T02:43:09.420Z,8.43
2018-11-06T02:45:38.061Z,8.42
2018-11-06T02:48:07.127Z,8.40
2018-11-06T02:50:35.768Z,7.89
2018-11-06T02:53:10.980Z,7.91
2018-11-06T02:55:39.683Z,7.95
2018-11-06T02:58:08.269Z,8.12
2018-11-06T03:00:36.905Z,8.27
2018-11-06T03:03:05.974Z,8.12
2018-11-06T03:05:34.593Z,8.24
2018-11-06T03:08:03.221Z,8.19
2018-11-06T03:10:31.997Z,8.35
2018-11-06T03:13:00.538Z,8.38
2018-11-06T03:15:29.202Z,8.48
2018-11-06T03:17:57.859Z,8.44
2018-11-06T03:20:26.505Z,8.27
2018-11-06T03:22:55.144Z,8.14
2018-11-06T03:25:23.761Z,8.17
2018-11-06T03:27:52.385Z,8.19
2018-11-06T03:30:21.044Z,8.19
2018-11-06T03:32:49.695Z,8.17
2018-11-06T03:35:18.357Z,8.08
2018-11-06T03:37:46.966Z,8.03
2018-11-06T03:40:15.582Z,7.81
2018-11-06T03:42:44.549Z,7.58
2018-11-06T03:45:13.897Z,7.59
2018-11-06T03:47:42.511Z,7.56
2018-11-06T03:50:12.491Z,7.58
2018-11-06T03:52:41.187Z,7.69
2018-11-06T03:55:10.035Z,7.48
2018-11-06T03:57:38.651Z,7.16
2018-11-06T04:00:15.329Z,6.93
2018-11-06T04:02:44.486Z,7.28
2018-11-06T04:05:13.473Z,7.28
2018-11-06T04:07:42.117Z,7.17
2018-11-06T04:10:11.784Z,7.22
2018-11-06T04:12:41.112Z,7.26
2018-11-06T04:15:10.353Z,6.93
2018-11-06T04:17:38.950Z,6.71
2018-11-06T04:20:07.978Z,6.71
2018-11-06T04:22:36.633Z,6.75
2018-11-06T04:25:05.848Z,6.47
2018-11-06T04:27:34.536Z,6.20
2018-11-06T04:30:10.319Z,6.56
2018-11-06T04:32:39.038Z,6.87
2018-11-06T04:35:07.890Z,6.91
2018-11-06T04:37:36.571Z,7.04
2018-11-06T04:40:06.052Z,7.04
2018-11-06T04:42:34.683Z,7.06
2018-11-06T04:45:03.336Z,7.16
2018-11-06T04:47:32.027Z,7.47
2018-11-06T04:50:00.649Z,7.49
2018-11-06T04:52:29.275Z,7.36
2018-11-06T04:54:57.944Z,7.51
2018-11-06T04:57:26.513Z,7.62
2018-11-06T04:59:55.143Z,7.59
2018-11-06T05:02:23.786Z,7.65
2018-11-06T05:04:52.414Z,7.53
2018-11-06T05:07:21.940Z,7.53
2018-11-06T05:09:50.579Z,7.46
2018-11-06T05:12:19.245Z,7.32
2018-11-06T05:14:47.898Z,7.25
2018-11-06T05:17:16.532Z,7.14
2018-11-06T05:19:45.138Z,7.36
2018-11-06T05:22:13.749Z,7.36
2018-11-06T05:24:42.416Z,7.38
2018-11-06T05:27:11.212Z,7.51
2018-11-06T05:29:39.852Z,7.77
2018-11-06T05:32:08.488Z,8.16
2018-11-06T05:34:37.478Z,8.51
2018-11-06T05:37:06.131Z,8.14
2018-11-06T05:39:34.940Z,7.72
2018-11-06T05:42:03.527Z,7.53
2018-11-06T05:44:32.218Z,7.47
2018-11-06T05:47:00.862Z,7.38
2018-11-06T05:49:29.447Z,7.32
2018-11-06T05:51:58.042Z,7.31
2018-11-06T05:54:26.659Z,7.38
2018-11-06T05:56:55.278Z,7.53
2018-11-06T05:59:23.938Z,7.89
2018-11-06T06:01:52.570Z,7.98
2018-11-06T06:04:21.210Z,7.93
2018-11-06T06:06:49.930Z,7.97
2018-11-06T06:09:18.580Z,8.18
2018-11-06T06:11:47.265Z,8.01
2018-11-06T06:14:15.881Z,8.12
2018-11-06T06:16:44.538Z,8.27
2018-11-06T06:19:13.193Z,8.30
2018-11-06T06:21:41.858Z,8.32
2018-11-06T06:24:10.506Z,8.45
2018-11-06T06:26:39.173Z,8.50
2018-11-06T06:29:07.852Z,8.48
2018-11-06T06:31:36.456Z,8.79
2018-11-06T06:34:05.102Z,9.10
2018-11-06T06:36:33.756Z,9.45
2018-11-06T06:39:02.397Z,9.50
2018-11-06T06:41:31.096Z,9.75
2018-11-06T06:43:59.697Z,9.72
2018-11-06T06:46:28.391Z,9.36
2018-11-06T06:48:57.022Z,9.28
2018-11-06T06:51:25.636Z,9.06
2018-11-06T06:53:54.312Z,8.78
2018-11-06T06:56:26.029Z,9.25
2018-11-06T06:58:55.442Z,9.49
2018-11-06T07:01:24.052Z,9.52
2018-11-06T07:03:52.657Z,9.36
2018-11-06T07:06:21.334Z,9.88
2018-11-06T07:08:50.002Z,9.96
2018-11-06T07:11:18.732Z,10.60
2018-11-06T07:13:47.380Z,11.04
2018-11-06T07:16:16.070Z,11.10
2018-11-06T07:18:44.714Z,10.39
2018-11-06T07:21:13.333Z,10.66
2018-11-06T07:23:41.995Z,10.86
2018-11-06T07:26:10.611Z,10.76
2018-11-06T07:28:39.301Z,10.55
2018-11-06T07:31:07.973Z,10.73
2018-11-06T07:33:36.636Z,10.81
2018-11-06T07:36:05.302Z,10.99
2018-11-06T07:38:33.992Z,11.03
2018-11-06T07:41:02.755Z,11.30
2018-11-06T07:43:31.302Z,11.16
2018-11-06T07:45:59.984Z,11.07
2018-11-06T07:48:28.649Z,11.06
2018-11-06T07:50:57.302Z,11.74
2018-11-06T07:53:26.030Z,12.10
2018-11-06T07:55:54.820Z,12.24
2018-11-06T07:58:23.467Z,12.22
2018-11-06T08:00:52.183Z,12.28
2018-11-06T08:03:20.890Z,12.38
2018-11-06T08:05:49.859Z,12.16
2018-11-06T08:08:18.562Z,12.00
2018-11-06T08:10:47.242Z,12.20
2018-11-06T08:13:15.896Z,12.43
2018-11-06T08:15:44.626Z,12.21
2018-11-06T08:18:13.320Z,12.60
2018-11-06T08:20:42.069Z,12.77
2018-11-06T08:23:10.794Z,12.61
2018-11-06T08:25:39.449Z,13.20
2018-11-06T08:28:08.117Z,13.30
2018-11-06T08:30:36.799Z,12.99
2018-11-06T08:33:05.584Z,12.75
2018-11-06T08:35:34.249Z,13.01
2018-11-06T08:38:03.014Z,13.53
2018-11-06T08:40:31.728Z,13.99
2018-11-06T08:43:00.360Z,13.97
2018-11-06T08:45:29.043Z,13.44
2018-11-06T08:47:57.728Z,13.51
2018-11-06T08:50:26.347Z,13.74
2018-11-06T08:52:55.538Z,13.79
2018-11-06T08:55:24.245Z,14.15
2018-11-06T08:57:52.893Z,14.13
2018-11-06T09:00:21.535Z,14.03
2018-11-06T09:02:50.309Z,14.51
2018-11-06T09:05:19.558Z,14.61
2018-11-06T09:07:48.245Z,14.29
2018-11-06T09:10:17.346Z,14.55
2018-11-06T09:12:46.092Z,14.84
2018-11-06T09:15:15.652Z,14.95
2018-11-06T09:17:44.334Z,15.25
2018-11-06T09:20:14.174Z,15.32
2018-11-06T09:22:42.801Z,15.30
2018-11-06T09:25:13.687Z,14.95
2018-11-06T09:27:43.087Z,15.34
2018-11-06T09:30:14.112Z,15.70
2018-11-06T09:32:42.820Z,15.85
2018-11-06T09:35:12.411Z,16.23
2018-11-06T09:37:41.703Z,16.45
2018-11-06T09:40:12.781Z,17.00
2018-11-06T09:42:41.521Z,17.14
2018-11-06T09:45:10.953Z,16.99
2018-11-06T09:47:39.551Z,16.79
2018-11-06T09:50:11.837Z,16.59
2018-11-06T09:52:40.485Z,16.51
2018-11-06T09:55:09.137Z,16.33
2018-11-06T09:57:37.841Z,16.72
2018-11-06T10:00:12.316Z,17.10
2018-11-06T10:02:40.960Z,17.14
2018-11-06T10:05:10.396Z,17.23
2018-11-06T10:07:39.308Z,17.58
2018-11-06T10:10:10.661Z,18.09
2018-11-06T10:12:39.715Z,18.08
2018-11-06T10:15:10.363Z,18.04
2018-11-06T10:17:39.850Z,18.14
2018-11-06T10:20:09.430Z,18.38
2018-11-06T10:22:38.197Z,18.39
2018-11-06T10:25:07.332Z,18.55
2018-11-06T10:27:36.217Z,18.44
2018-11-06T10:30:11.004Z,18.69
2018-11-06T10:32:39.667Z,18.68
2018-11-06T10:35:09.064Z,18.72
2018-11-06T10:37:37.698Z,19.11
2018-11-06T10:40:09.628Z,19.55
2018-11-06T10:42:38.631Z,19.67
2018-11-06T10:45:08.067Z,19.81
2018-11-06T10:47:36.985Z,20.40
2018-11-06T10:50:06.320Z,20.20
2018-11-06T10:52:34.998Z,19.69
2018-11-06T10:55:04.017Z,19.89
2018-11-06T10:57:32.642Z,20.10
2018-11-06T11:00:01.305Z,20.65
2018-11-06T11:02:35.319Z,20.93
2018-11-06T11:05:04.035Z,20.65
2018-11-06T11:07:32.690Z,20.32
2018-11-06T11:10:01.358Z,20.83
2018-11-06T11:12:30.028Z,20.43
2018-11-06T11:14:58.697Z,20.54
2018-11-06T11:17:27.354Z,20.84
2018-11-06T11:19:56.056Z,21.32
2018-11-06T11:22:24.732Z,21.36
2018-11-06T11:24:53.374Z,20.48
2018-11-06T11:27:22.051Z,20.32
2018-11-06T11:29:50.782Z,20.12
2018-11-06T11:32:19.426Z,20.00
2018-11-06T11:34:48.414Z,20.17
2018-11-06T11:37:17.160Z,20.18
2018-11-06T11:39:45.866Z,20.24
2018-11-06T11:42:14.499Z,20.53
2018-11-06T11:44:43.133Z,19.74
2018-11-06T11:47:11.766Z,19.76
2018-11-06T11:49:40.417Z,19.82
2018-11-06T11:52:09.087Z,19.67
2018-11-06T11:54:38.637Z,19.77
2018-11-06T11:57:07.305Z,19.77
2018-11-06T11:59:35.952Z,19.75
2018-11-06T12:02:04.979Z,19.67
2018-11-06T12:04:33.600Z,19.55
2018-11-06T12:07:02.205Z,19.71
2018-11-06T12:09:30.855Z,19.72
2018-11-06T12:11:59.531Z,19.46
2018-11-06T12:14:28.136Z,19.54
2018-11-06T12:16:56.811Z,19.75
2018-11-06T12:19:25.452Z,19.80
2018-11-06T12:21:54.113Z,19.53
2018-11-06T12:24:22.828Z,19.44
2018-11-06T12:26:51.459Z,18.82
2018-11-06T12:29:20.121Z,19.21
2018-11-06T12:31:48.756Z,19.24
2018-11-06T12:34:17.413Z,19.22
2018-11-06T12:36:46.674Z,19.01
2018-11-06T12:39:15.342Z,18.93
2018-11-06T12:41:44.047Z,19.07
2018-11-06T12:44:12.689Z,18.98
2018-11-06T12:46:41.346Z,19.01
2018-11-06T12:49:10.005Z,18.87
2018-11-06T12:51:38.677Z,19.01
2018-11-06T12:54:07.460Z,18.77
2018-11-06T12:56:36.726Z,18.81
2018-11-06T12:59:05.510Z,17.96
2018-11-06T13:01:34.149Z,18.86
2018-11-06T13:04:02.845Z,18.98
2018-11-06T13:06:31.507Z,18.93
2018-11-06T13:09:00.173Z,18.52
2018-11-06T13:11:28.803Z,18.52
2018-11-06T13:13:57.544Z,18.49
2018-11-06T13:16:26.177Z,18.25
2018-11-06T13:18:54.894Z,18.37
2018-11-06T13:21:23.600Z,18.25
2018-11-06T13:23:52.221Z,18.17
2018-11-06T13:26:20.976Z,18.15
2018-11-06T13:28:49.497Z,18.05
2018-11-06T13:31:18.158Z,17.82
2018-11-06T13:33:46.855Z,17.59
2018-11-06T13:36:15.493Z,17.67
2018-11-06T13:38:44.104Z,17.54
2018-11-06T13:41:12.804Z,17.42
2018-11-06T13:43:41.695Z,17.20
2018-11-06T13:46:10.277Z,17.09
2018-11-06T13:48:38.930Z,17.15
2018-11-06T13:51:07.592Z,17.05
2018-11-06T13:53:36.220Z,16.82
2018-11-06T13:56:04.958Z,16.74
2018-11-06T13:58:33.604Z,16.69
2018-11-06T14:01:02.230Z,16.63
2018-11-06T14:03:30.889Z,16.55
2018-11-06T14:05:59.517Z,16.52
2018-11-06T14:08:28.285Z,16.48
2018-11-06T14:10:56.952Z,16.45
2018-11-06T14:13:25.552Z,16.37
2018-11-06T14:15:54.203Z,16.26
2018-11-06T14:18:23.174Z,16.20
2018-11-06T14:20:51.881Z,16.09
2018-11-06T14:23:20.511Z,16.07
2018-11-06T14:25:49.169Z,16.01
2018-11-06T14:28:18.083Z,15.94
2018-11-06T14:30:46.723Z,15.81
2018-11-06T14:33:15.390Z,15.77
2018-11-06T14:35:44.126Z,15.76
2018-11-06T14:38:12.750Z,15.69
2018-11-06T14:40:41.377Z,15.62
2018-11-06T14:43:10.029Z,15.52
2018-11-06T14:45:38.700Z,15.39
2018-11-06T14:48:07.498Z,15.33
2018-11-06T14:50:36.110Z,15.26
2018-11-06T14:53:05.035Z,15.21
2018-11-06T14:55:33.654Z,15.15
2018-11-06T14:58:02.349Z,15.03
2018-11-06T15:00:31.168Z,14.94
2018-11-06T15:02:59.780Z,14.86
2018-11-06T15:05:28.411Z,14.74
2018-11-06T15:07:57.035Z,14.66
2018-11-06T15:10:25.691Z,14.56
2018-11-06T15:12:54.333Z,14.45
2018-11-06T15:15:22.985Z,14.36
2018-11-06T15:17:51.642Z,14.26
2018-11-06T15:20:21.566Z,14.08
2018-11-06T15:22:50.239Z,14.01
2018-11-06T15:25:19.465Z,13.92
2018-11-06T15:27:48.142Z,13.80
2018-11-06T15:30:17.778Z,13.75
2018-11-06T15:32:46.392Z,13.65
2018-11-06T15:35:16.411Z,13.56
2018-11-06T15:37:45.166Z,13.47
2018-11-06T15:40:15.662Z,13.41
2018-11-06T15:42:44.458Z,13.37
2018-11-06T15:45:15.064Z,13.30
2018-11-06T15:47:44.461Z,13.19
2018-11-06T15:50:14.536Z,13.12
2018-11-06T15:52:43.912Z,13.06
2018-11-06T15:55:12.550Z,12.99
2018-11-06T15:57:41.176Z,12.95
2018-11-06T16:00:12.786Z,12.91
2018-11-06T16:02:41.711Z,12.89
2018-11-06T16:05:10.423Z,12.84
2018-11-06T16:07:39.420Z,12.76
2018-11-06T16:10:16.519Z,12.74
2018-11-06T16:12:45.716Z,12.71
2018-11-06T16:15:14.384Z,12.72
2018-11-06T16:17:43.482Z,12.68
2018-11-06T16:20:13.514Z,12.63
2018-11-06T16:22:42.366Z,12.52
2018-11-06T16:25:12.552Z,12.42
2018-11-06T16:27:41.618Z,12.34
2018-11-06T16:30:12.830Z,8.90
2018-11-06T16:32:41.519Z,12.21
2018-11-06T16:35:12.246Z,12.16
2018-11-06T16:37:41.293Z,12.13
2018-11-06T16:40:10.462Z,12.06
2018-11-06T16:42:39.601Z,12.01
2018-11-06T16:45:10.119Z,11.96
2018-11-06T16:47:38.758Z,11.90
2018-11-06T16:50:08.988Z,11.82
2018-11-06T16:52:37.624Z,11.75
2018-11-06T16:55:06.807Z,11.69
2018-11-06T16:57:35.460Z,11.65
2018-11-06T17:00:13.331Z,11.61
2018-11-06T17:02:42.449Z,11.53
2018-11-06T17:05:12.478Z,11.47
2018-11-06T17:07:41.407Z,11.42
2018-11-06T17:10:11.685Z,11.39
2018-11-06T17:12:40.436Z,11.38
2018-11-06T17:15:11.711Z,11.38
2018-11-06T17:17:40.353Z,11.37
2018-11-06T17:20:10.438Z,11.35
2018-11-06T17:22:39.240Z,11.36
2018-11-06T17:25:09.445Z,11.38
2018-11-06T17:27:38.301Z,11.37
2018-11-06T17:30:12.977Z,11.35
2018-11-06T17:32:41.959Z,11.35
2018-11-06T17:35:12.364Z,11.34
2018-11-06T17:37:41.389Z,11.37
2018-11-06T17:40:12.544Z,11.37
2018-11-06T17:42:41.612Z,11.43
2018-11-06T17:45:12.816Z,11.50
2018-11-06T17:47:41.968Z,11.54
2018-11-06T17:50:12.187Z,11.58
2018-11-06T17:52:40.876Z,11.66
2018-11-06T17:55:11.293Z,11.74
2018-11-06T17:57:40.248Z,11.82
2018-11-06T18:00:14.552Z,11.88
2018-11-06T18:02:43.383Z,11.91
2018-11-06T18:05:13.110Z,11.97
2018-11-06T18:07:42.371Z,12.03
2018-11-06T18:10:13.049Z,12.10
2018-11-06T18:12:41.765Z,12.13
2018-11-06T18:15:10.485Z,12.14
2018-11-06T18:17:39.952Z,12.17
2018-11-06T18:20:09.458Z,12.22
2018-11-06T18:22:38.203Z,12.29
2018-11-06T18:25:07.189Z,12.31
2018-11-06T18:27:35.858Z,12.33
2018-11-06T18:30:08.921Z,12.33
2018-11-06T18:32:37.790Z,12.37
2018-11-06T18:35:07.393Z,12.39
2018-11-06T18:37:36.106Z,12.42
2018-11-06T18:40:05.224Z,12.42
2018-11-06T18:42:33.849Z,12.42
2018-11-06T18:45:02.504Z,12.39
2018-11-06T18:47:31.246Z,12.41
2018-11-06T18:49:59.885Z,12.43
2018-11-06T18:52:28.536Z,12.45
2018-11-06T18:54:57.177Z,12.48
2018-11-06T18:57:25.866Z,12.51
2018-11-06T18:59:54.512Z,12.55
2018-11-06T19:02:23.140Z,12.56
2018-11-06T19:04:51.781Z,12.56
2018-11-06T19:07:20.391Z,12.57
2018-11-06T19:09:49.025Z,12.58
2018-11-06T19:12:17.646Z,12.57
2018-11-06T19:14:46.281Z,12.56
2018-11-06T19:17:14.933Z,12.58
2018-11-06T19:19:43.561Z,12.57
2018-11-06T19:22:12.204Z,12.55
2018-11-06T19:24:40.883Z,12.54
2018-11-06T19:27:09.489Z,12.54
2018-11-06T19:29:38.204Z,12.50
2018-11-06T19:32:07.032Z,12.45
2018-11-06T19:34:35.713Z,12.36
2018-11-06T19:37:04.409Z,12.34
2018-11-06T19:39:33.070Z,12.32
2018-11-06T19:42:01.785Z,12.32
2018-11-06T19:44:30.417Z,12.32
2018-11-06T19:46:59.085Z,12.32
2018-11-06T19:49:27.705Z,12.32
2018-11-06T19:51:56.312Z,12.33
2018-11-06T19:54:24.972Z,12.29
2018-11-06T19:56:53.644Z,12.29
2018-11-06T19:59:22.312Z,12.10
2018-11-06T20:01:50.972Z,12.24
2018-11-06T20:04:19.629Z,12.24
2018-11-06T20:06:48.589Z,12.23
2018-11-06T20:09:17.254Z,12.22
2018-11-06T20:11:45.980Z,12.22
2018-11-06T20:14:14.989Z,12.22
2018-11-06T20:16:43.625Z,12.23
2018-11-06T20:19:12.265Z,12.20
2018-11-06T20:21:40.935Z,12.21
2018-11-06T20:24:09.691Z,12.20
2018-11-06T20:26:38.833Z,12.19
2018-11-06T20:29:07.591Z,12.17
2018-11-06T20:31:36.283Z,12.19
2018-11-06T20:34:05.032Z,12.20
2018-11-06T20:36:33.633Z,12.23
2018-11-06T20:39:02.293Z,12.24
2018-11-06T20:41:30.955Z,12.27
2018-11-06T20:43:59.626Z,12.29
2018-11-06T20:46:28.371Z,12.30
2018-11-06T20:48:57.097Z,12.30
2018-11-06T20:51:25.755Z,12.13
2018-11-06T20:53:54.418Z,12.28
2018-11-06T20:56:23.039Z,12.28
2018-11-06T20:58:51.692Z,12.28
2018-11-06T21:01:20.523Z,12.27
2018-11-06T21:03:49.053Z,12.25
2018-11-06T21:06:17.741Z,12.23
2018-11-06T21:08:46.425Z,12.24
2018-11-06T21:11:15.141Z,12.23
2018-11-06T21:13:43.885Z,12.17
2018-11-06T21:16:12.583Z,12.14
2018-11-06T21:18:41.222Z,12.10
2018-11-06T21:21:09.882Z,12.09
2018-11-06T21:23:38.561Z,12.10
2018-11-06T21:26:07.385Z,12.09
2018-11-06T21:28:36.014Z,12.11
2018-11-06T21:31:04.709Z,12.11
2018-11-06T21:33:33.361Z,12.11
2018-11-06T21:36:02.026Z,12.10
2018-11-06T21:38:30.713Z,12.10
2018-11-06T21:40:59.384Z,12.10
2018-11-06T21:43:28.010Z,12.07
2018-11-06T21:45:56.690Z,12.05
2018-11-06T21:48:25.364Z,12.03
2018-11-06T21:50:54.039Z,12.04
2018-11-06T21:53:22.805Z,12.04
2018-11-06T21:55:51.469Z,12.02
2018-11-06T21:58:20.069Z,12.02
2018-11-06T22:00:48.863Z,12.01
2018-11-06T22:03:17.414Z,11.99
2018-11-06T22:05:46.086Z,11.98
2018-11-06T22:08:14.777Z,11.98
2018-11-06T22:10:43.492Z,11.99
2018-11-06T22:13:12.208Z,11.98
2018-11-06T22:15:40.902Z,11.98
2018-11-06T22:18:09.639Z,11.98
2018-11-06T22:20:38.372Z,11.97
2018-11-06T22:23:07.086Z,11.96
2018-11-06T22:25:35.726Z,11.96
2018-11-06T22:28:04.358Z,11.95
2018-11-06T22:30:32.978Z,11.93
2018-11-06T22:33:01.686Z,11.90
2018-11-06T22:35:30.334Z,11.91
2018-11-06T22:37:59.038Z,11.87
2018-11-06T22:40:27.711Z,11.85
2018-11-06T22:42:56.341Z,11.83
2018-11-06T22:45:24.987Z,11.83
2018-11-06T22:47:53.592Z,11.85
2018-11-06T22:50:22.257Z,11.84
2018-11-06T22:52:50.994Z,11.43
2018-11-06T22:55:19.609Z,11.82
2018-11-06T22:57:48.218Z,11.82
2018-11-06T23:00:23.509Z,11.81
2018-11-06T23:02:52.141Z,11.82
2018-11-06T23:05:20.778Z,11.84
2018-11-06T23:07:54.588Z,11.84
2018-11-06T23:10:23.275Z,11.80
2018-11-06T23:12:52.009Z,11.79
2018-11-06T23:15:20.642Z,11.80
2018-11-06T23:17:49.440Z,11.81
2018-11-06T23:20:18.058Z,11.81
2018-11-06T23:22:46.702Z,11.84
2018-11-06T23:25:15.374Z,11.85
2018-11-06T23:27:44.020Z,11.85
2018-11-06T23:30:14.322Z,11.84
2018-11-06T23:32:43.054Z,11.84
2018-11-06T23:35:11.695Z,11.84
2018-11-06T23:37:40.956Z,11.84
2018-11-06T23:40:10.334Z,11.81
2018-11-06T23:42:39.166Z,11.82
2018-11-06T23:45:08.465Z,11.82
2018-11-06T23:47:37.165Z,11.80
2018-11-06T23:50:06.350Z,11.79
2018-11-06T23:52:34.964Z,11.78
2018-11-06T23:55:03.658Z,11.76
2018-11-06T23:57:32.316Z,11.77
